Time;durP1;ratioP1;P1;durP2;ratioP2;P2;SDS_P1;SDS_P2;PMS_P1;PMS_P2;Temp;Humidity;BMP_temperature;BMP_pressure;BME280_temperature;BME280_humidity;BME280_pressure;Samples;Min_cycle;Max_cycle;Signal;HPM_P1;HPM_P2
2022/02/02 00:01:27;;;;;;;30.33;6.00;;;;;;;9.07;100.00;101521.84;5221092;28;20033;-74
2022/02/02 00:04:00;;;;;;;32.35;6.10;;;;;;;9.08;100.00;101503.44;5220151;28;20025;-75
2022/02/02 00:06:39;;;;;;;26.92;5.28;;;;;;;9.07;100.00;101500.94;5219843;28;20150;-74
2022/02/02 00:09:15;;;;;;;28.42;6.40;;;;;;;9.04;100.00;101506.38;5219750;28;20037;-74
2022/02/02 00:15:06;;;;;;;28.73;5.75;;;;;;;9.03;100.00;101531.66;5157220;28;20408;-74
2022/02/02 00:17:48;;;;;;;33.10;6.10;;;;;;;8.99;100.00;101523.19;5157075;28;20163;-74
2022/02/02 00:20:26;;;;;;;30.52;7.25;;;;;;;8.95;100.00;101521.72;5194751;28;20048;-75
2022/02/02 00:23:01;;;;;;;26.63;6.20;;;;;;;8.95;100.00;101531.34;5219333;28;20041;-74
2022/02/02 00:25:37;;;;;;;25.08;5.32;;;;;;;8.83;100.00;101509.50;5219770;28;20026;-74
2022/02/02 00:28:08;;;;;;;33.15;6.50;;;;;;;8.84;100.00;101508.53;5220390;28;20030;-75
2022/02/02 00:30:40;;;;;;;29.80;6.43;;;;;;;8.81;100.00;101503.53;5219681;28;20025;-74
2022/02/02 00:35:53;;;;;;;28.70;5.10;;;;;;;8.83;100.00;101503.44;5219256;28;20048;-74
2022/02/02 00:38:24;;;;;;;27.02;5.35;;;;;;;8.79;100.00;101508.03;5202072;28;20026;-74
2022/02/02 00:40:55;;;;;;;24.08;5.60;;;;;;;8.86;100.00;101513.66;5218848;28;20468;-74
2022/02/02 00:43:27;;;;;;;28.17;6.43;;;;;;;8.79;100.00;101513.25;5220851;28;20029;-74
2022/02/02 00:45:58;;;;;;;24.23;5.10;;;;;;;8.78;100.00;101511.56;5218731;28;20037;-74
2022/02/02 00:48:32;;;;;;;31.88;6.65;;;;;;;8.77;100.00;101509.88;5200642;28;20101;-74
2022/02/02 00:51:03;;;;;;;23.80;5.68;;;;;;;8.85;100.00;101502.38;5219099;28;20022;-74
2022/02/02 00:53:35;;;;;;;24.23;6.32;;;;;;;8.83;100.00;101516.50;5220569;28;20041;-74
2022/02/02 00:56:06;;;;;;;31.73;5.95;;;;;;;8.87;100.00;101515.34;5218578;28;20060;-75
2022/02/02 00:58:37;;;;;;;25.67;4.82;;;;;;;8.88;100.00;101522.25;5218638;28;20186;-74
2022/02/02 01:01:08;;;;;;;24.83;5.13;;;;;;;8.87;100.00;101516.19;5219068;28;20034;-74
2022/02/02 01:03:40;;;;;;;26.38;5.97;;;;;;;8.83;100.00;101519.13;5216797;28;20025;-75
2022/02/02 01:06:16;;;;;;;29.30;6.15;;;;;;;8.84;100.00;101516.38;5218059;28;20112;-74
2022/02/02 01:19:36;;;;;;;27.20;5.53;;;;;;;8.83;100.00;101529.56;5218824;28;20053;-75
2022/02/02 01:27:50;;;;;;;29.52;5.95;;;;;;;8.75;100.00;101530.91;5218064;28;20442;-74
2022/02/02 01:30:25;;;;;;;30.40;5.70;;;;;;;8.71;100.00;101521.59;5218386;28;20585;-74
2022/02/02 01:32:56;;;;;;;28.45;6.05;;;;;;;8.69;100.00;101528.69;5218331;28;20060;-75
2022/02/02 01:35:28;;;;;;;26.20;5.75;;;;;;;8.74;100.00;101520.53;5219003;28;20437;-75
2022/02/02 01:37:59;;;;;;;29.23;5.35;;;;;;;8.67;100.00;101534.94;5215361;28;20030;-76
2022/02/02 01:40:36;;;;;;;28.13;5.95;;;;;;;8.66;100.00;101530.66;5217799;28;20018;-75
2022/02/02 01:43:13;;;;;;;31.67;5.88;;;;;;;8.56;100.00;101529.56;5220179;28;20034;-74
2022/02/02 01:45:51;;;;;;;31.02;6.55;;;;;;;8.48;100.00;101523.06;5217620;28;20495;-74
2022/02/02 01:56:29;;;;;;;33.10;6.07;;;;;;;8.44;100.00;101552.94;5217299;28;20073;-74
2022/02/02 01:59:03;;;;;;;30.63;6.05;;;;;;;8.45;100.00;101549.41;5219646;28;20022;-74
2022/02/02 02:01:35;;;;;;;26.55;6.85;;;;;;;8.36;100.00;101536.06;5216855;28;20025;-74
2022/02/02 02:04:06;;;;;;;29.50;5.95;;;;;;;8.43;100.00;101566.09;5217689;28;20048;-74
2022/02/02 02:06:37;;;;;;;36.42;5.78;;;;;;;8.45;100.00;101578.13;5217064;28;20036;-74
2022/02/02 02:09:08;;;;;;;31.55;6.72;;;;;;;8.40;100.00;101550.63;5215951;28;20077;-74
2022/02/02 02:11:55;;;;;;;29.67;6.55;;;;;;;8.52;100.00;101570.72;5217729;28;20586;-74
2022/02/02 02:15:13;;;;;;;27.30;6.43;;;;;;;8.39;100.00;101581.13;5216509;28;20017;-74
2022/02/02 02:17:18;;;;;;;24.95;5.53;;;;;;;8.37;100.00;101574.28;5212274;28;20045;-75
2022/02/02 02:19:51;;;;;;;27.73;5.95;;;;;;;8.43;100.00;101574.78;5217678;28;20184;-74
2022/02/02 02:22:29;;;;;;;29.65;6.00;;;;;;;8.45;100.00;101575.53;5217143;28;20022;-74
2022/02/02 02:25:01;;;;;;;31.27;6.15;;;;;;;8.42;100.00;101580.94;5217444;28;20606;-74
2022/02/02 02:27:32;;;;;;;33.13;5.88;;;;;;;8.38;100.00;101570.81;5217267;28;20104;-74
2022/02/02 02:30:14;;;;;;;28.73;5.63;;;;;;;8.38;100.00;101581.25;5216601;28;20029;-74
2022/02/02 02:38:48;;;;;;;26.55;6.50;;;;;;;8.25;100.00;101560.25;5216550;28;20041;-74
2022/02/02 02:55:57;;;;;;;26.92;5.55;;;;;;;8.38;100.00;101571.63;5217527;28;20472;-74
2022/02/02 03:01:25;;;;;;;29.70;5.80;;;;;;;8.46;100.00;101584.19;5217844;28;20037;-73
2022/02/02 04:03:23;;;;;;;27.05;5.72;;;;;;;8.47;100.00;101588.47;5215808;28;20038;-74
2022/02/02 04:05:48;;;;;;;30.75;6.15;;;;;;;8.43;100.00;101592.22;5215123;28;20833;-74
2022/02/02 04:10:58;;;;;;;22.52;5.38;;;;;;;8.43;100.00;101603.50;5214289;28;20649;-74
2022/02/02 04:56:06;;;;;;;28.38;5.90;;;;;;;8.34;100.00;101593.63;5217248;28;20546;-74
2022/02/02 04:58:51;;;;;;;30.75;6.47;;;;;;;8.33;100.00;101606.75;5216185;28;20029;-74
2022/02/02 05:02:14;;;;;;;30.33;6.22;;;;;;;8.33;100.00;101606.75;5217155;28;20069;-74
2022/02/02 05:04:46;;;;;;;24.58;5.72;;;;;;;8.31;100.00;101612.09;5215715;28;20061;-74
2022/02/02 05:07:30;;;;;;;30.38;7.00;;;;;;;8.26;100.00;101604.53;5214223;28;20049;-74
2022/02/02 05:52:24;;;;;;;35.28;6.53;;;;;;;8.30;100.00;101667.84;5216491;28;20032;-73
2022/02/02 05:54:56;;;;;;;33.72;6.13;;;;;;;8.30;100.00;101678.28;5217998;28;20522;-73
2022/02/02 05:57:31;;;;;;;33.67;6.32;;;;;;;8.30;100.00;101693.97;5217344;28;20021;-74
2022/02/02 06:00:02;;;;;;;27.27;6.13;;;;;;;8.29;100.00;101697.47;5216094;28;20124;-73
2022/02/02 06:02:42;;;;;;;38.78;6.85;;;;;;;8.34;100.00;101690.22;5217461;28;20104;-74
2022/02/02 06:05:14;;;;;;;29.75;6.35;;;;;;;8.28;100.00;101695.81;5217126;28;20034;-73
2022/02/02 06:07:51;;;;;;;29.50;6.90;;;;;;;8.28;100.00;101698.41;5216850;28;20033;-73
2022/02/02 06:10:24;;;;;;;30.25;6.47;;;;;;;8.28;100.00;101693.19;5215768;28;20030;-74
2022/02/02 06:12:59;;;;;;;32.05;7.03;;;;;;;8.27;100.00;101694.97;5217783;28;20091;-74
2022/02/02 06:15:32;;;;;;;32.78;7.07;;;;;;;8.31;100.00;101700.00;5217538;28;20099;-73
2022/02/02 06:18:05;;;;;;;36.50;6.97;;;;;;;8.28;100.00;101699.25;5217339;28;20475;-74
2022/02/02 06:20:42;;;;;;;37.75;6.72;;;;;;;8.35;100.00;101709.34;5216165;28;20040;-73
2022/02/02 06:23:15;;;;;;;39.20;6.18;;;;;;;8.36;100.00;101714.44;5215840;28;20026;-74
2022/02/02 06:25:50;;;;;;;31.30;6.43;;;;;;;8.37;100.00;101720.50;5216835;28;20042;-74
2022/02/02 06:28:23;;;;;;;33.60;6.50;;;;;;;8.33;100.00;101735.50;5216442;28;20061;-73
2022/02/02 06:31:02;;;;;;;37.13;7.65;;;;;;;8.39;100.00;101724.75;5217458;28;20029;-74
2022/02/02 06:33:39;;;;;;;38.75;7.10;;;;;;;8.37;100.00;101716.19;5202332;28;20029;-73
2022/02/02 06:36:11;;;;;;;26.95;5.97;;;;;;;8.31;100.00;101711.28;5216366;28;20391;-73
2022/02/02 06:38:44;;;;;;;31.27;7.47;;;;;;;8.36;100.00;101722.28;5216759;28;20018;-73
2022/02/02 06:41:17;;;;;;;28.30;6.03;;;;;;;8.31;100.00;101716.50;5216893;28;20037;-73
2022/02/02 06:43:49;;;;;;;30.30;6.10;;;;;;;8.25;100.00;101706.44;5217764;28;20030;-73
2022/02/02 06:46:28;;;;;;;32.00;6.60;;;;;;;8.34;100.00;101713.72;5216248;28;20629;-73
2022/02/02 06:49:01;;;;;;;31.85;6.00;;;;;;;8.24;100.00;101720.44;5215938;28;20033;-75
2022/02/02 06:51:38;;;;;;;33.83;6.93;;;;;;;8.23;100.00;101731.81;5216403;28;20036;-74
2022/02/02 06:54:22;;;;;;;27.88;6.28;;;;;;;8.29;100.00;101734.03;5213814;28;20033;-74
2022/02/02 06:57:07;;;;;;;37.55;6.93;;;;;;;8.29;100.00;101736.63;5234261;22;20052;-74
2022/02/02 07:02:39;;;;;;;29.70;5.85;;;;;;;8.27;100.00;101739.34;5225287;28;20048;-74
2022/02/02 07:21:51;;;;;;;35.28;6.50;;;;;;;8.01;100.00;101769.63;5230760;28;20108;-74
2022/02/02 07:24:51;;;;;;;31.92;6.75;;;;;;;8.01;100.00;101769.63;5230450;28;20036;-74
2022/02/02 07:30:05;;;;;;;33.47;7.63;;;;;;;7.90;100.00;101777.25;5222586;28;20521;-74
2022/02/02 07:32:45;;;;;;;26.63;6.38;;;;;;;7.92;100.00;101785.00;5229566;28;20067;-74
2022/02/02 07:35:28;;;;;;;26.80;5.43;;;;;;;7.93;100.00;101778.84;5231387;28;20025;-74
2022/02/02 07:38:09;;;;;;;34.47;6.50;;;;;;;7.98;100.00;101777.63;5230542;28;20049;-75
2022/02/02 07:40:44;;;;;;;27.23;5.88;;;;;;;7.91;100.00;101785.91;5229478;28;20025;-74
2022/02/02 07:43:23;;;;;;;27.27;6.43;;;;;;;8.01;100.00;101805.31;5230356;28;20034;-74
2022/02/02 07:46:02;;;;;;;25.48;5.60;;;;;;;7.95;100.00;101813.50;5230838;28;20022;-74
2022/02/02 07:48:39;;;;;;;31.20;6.45;;;;;;;7.92;100.00;101821.53;5211529;28;20022;-74
2022/02/02 07:51:11;;;;;;;31.30;7.22;;;;;;;7.86;100.00;101806.22;5230062;28;20035;-76
2022/02/02 07:53:47;;;;;;;28.13;6.32;;;;;;;7.96;100.00;101823.88;5228567;28;20029;-76
2022/02/02 07:56:23;;;;;;;27.92;6.10;;;;;;;7.92;100.00;101813.69;5226643;28;20141;-74
2022/02/02 07:59:14;;;;;;;31.38;5.78;;;;;;;7.96;100.00;101817.81;5227300;28;20037;-74
2022/02/02 08:01:48;;;;;;;28.40;6.13;;;;;;;8.01;100.00;101814.00;5227378;28;20091;-76
2022/02/02 08:04:22;;;;;;;20.88;5.82;;;;;;;8.06;100.00;101808.50;5229784;28;20379;-74
2022/02/02 08:06:55;;;;;;;26.83;6.03;;;;;;;8.06;100.00;101800.66;5233465;28;20483;-74
2022/02/02 08:12:03;;;;;;;26.70;5.55;;;;;;;8.13;100.00;101828.09;5233418;28;20564;-74
2022/02/02 08:14:36;;;;;;;30.08;6.22;;;;;;;8.17;100.00;101826.13;5232586;28;20505;-74
2022/02/02 08:17:08;;;;;;;31.63;6.47;;;;;;;8.21;100.00;101832.84;5231343;28;20025;-75
2022/02/02 08:19:40;;;;;;;29.13;6.18;;;;;;;8.22;100.00;101839.75;5215251;28;20498;-76
2022/02/02 08:22:11;;;;;;;26.70;5.63;;;;;;;8.23;100.00;101842.28;5234610;28;20474;-74
2022/02/02 08:24:42;;;;;;;25.33;6.68;;;;;;;8.27;100.00;101837.72;5234572;28;20018;-74
2022/02/02 08:27:15;;;;;;;22.13;5.53;;;;;;;8.20;100.00;101821.56;5231639;28;20045;-75
2022/02/02 08:29:46;;;;;;;33.97;6.78;;;;;;;8.22;100.00;101837.13;5231971;28;20061;-75
2022/02/02 08:32:18;;;;;;;24.10;6.10;;;;;;;8.24;100.00;101845.72;5234468;28;20568;-75
2022/02/02 08:34:51;;;;;;;21.17;5.20;;;;;;;8.22;100.00;101843.22;5231921;28;20138;-75
2022/02/02 08:37:29;;;;;;;28.33;6.53;;;;;;;8.26;100.00;101849.09;5233060;28;20087;-75
2022/02/02 08:40:19;;;;;;;28.13;5.47;;;;;;;8.26;100.00;101851.72;5235626;28;20018;-74
2022/02/02 08:42:50;;;;;;;28.05;6.18;;;;;;;8.24;100.00;101851.78;5230486;28;20060;-74
2022/02/02 08:45:26;;;;;;;27.58;6.38;;;;;;;8.29;100.00;101864.56;5232220;28;20112;-74
2022/02/02 08:48:03;;;;;;;27.40;5.35;;;;;;;8.30;100.00;101866.28;5233840;28;20037;-75
2022/02/02 08:50:48;;;;;;;22.85;5.25;;;;;;;8.34;100.00;101859.09;5233534;28;20104;-74
2022/02/02 08:58:46;;;;;;;28.92;5.47;;;;;;;8.38;100.00;101868.47;5233482;28;20387;-74
2022/02/02 09:01:24;;;;;;;25.40;5.55;;;;;;;8.41;100.00;101858.66;5233909;28;20033;-75
2022/02/02 09:06:45;;;;;;;16.50;4.85;;;;;;;8.57;100.00;101883.88;5232246;28;20487;-76
2022/02/02 09:09:20;;;;;;;22.50;4.82;;;;;;;8.60;100.00;101884.53;5230953;28;20033;-74
2022/02/02 09:36:30;;;;;;;19.52;6.00;;;;;;;9.17;100.00;101881.06;5231834;28;20041;-75
2022/02/02 09:39:20;;;;;;;25.33;6.55;;;;;;;9.39;100.00;101897.06;5231691;28;20051;-75
2022/02/02 09:42:02;;;;;;;18.65;6.20;;;;;;;9.33;100.00;101894.84;5231620;28;20044;-75
2022/02/02 09:44:37;;;;;;;27.50;6.32;;;;;;;9.43;100.00;101901.19;5230830;28;20033;-75
2022/02/02 09:49:59;;;;;;;25.60;5.97;;;;;;;9.49;100.00;101905.19;5232133;28;20022;-74
2022/02/02 09:52:38;;;;;;;20.58;6.18;;;;;;;9.50;100.00;101906.84;5232022;28;20490;-74
2022/02/02 09:55:40;;;;;;;25.52;6.18;;;;;;;9.54;100.00;101905.72;5232652;28;20060;-74
2022/02/02 10:01:17;;;;;;;18.90;5.00;;;;;;;9.75;100.00;101906.97;5232457;28;20040;-74
2022/02/02 10:04:15;;;;;;;18.27;5.47;;;;;;;9.82;100.00;101920.53;5230159;28;20025;-75
2022/02/02 10:06:58;;;;;;;26.63;6.28;;;;;;;9.66;100.00;101927.66;5231277;28;20133;-75
2022/02/02 10:15:17;;;;;;;19.00;5.35;;;;;;;9.85;100.00;101943.88;5231710;28;20042;-75
2022/02/02 10:17:59;;;;;;;22.98;6.10;;;;;;;9.92;100.00;101950.38;5231331;28;20681;-75
2022/02/02 10:20:31;;;;;;;18.88;5.93;;;;;;;9.86;100.00;101949.94;5232913;28;20368;-74
2022/02/02 10:23:05;;;;;;;16.52;5.25;;;;;;;9.89;100.00;101953.22;5230617;28;20037;-75
2022/02/02 10:25:40;;;;;;;21.27;5.78;;;;;;;9.96;100.00;101954.50;5229648;28;20171;-75
2022/02/02 10:28:14;;;;;;;21.25;6.00;;;;;;;9.98;100.00;101965.69;5231547;28;20051;-75
2022/02/02 10:30:51;;;;;;;21.83;5.43;;;;;;;10.09;100.00;101964.19;5232655;28;20044;-75
2022/02/02 10:33:27;;;;;;;21.23;5.93;;;;;;;10.09;100.00;101966.78;5231628;28;20017;-74
2022/02/02 10:36:16;;;;;;;28.20;6.03;;;;;;;10.15;100.00;101976.84;5228233;28;20099;-74
2022/02/02 10:39:15;;;;;;;21.30;5.95;;;;;;;10.24;100.00;101981.50;5227036;28;20482;-74
2022/02/02 10:41:55;;;;;;;21.13;6.32;;;;;;;10.12;100.00;101980.53;5230979;28;20410;-74
2022/02/02 10:44:38;;;;;;;24.17;6.55;;;;;;;10.19;100.00;101992.28;5230227;28;20021;-75
2022/02/02 10:47:27;;;;;;;19.40;5.07;;;;;;;10.25;100.00;101991.06;5231849;28;20025;-74
2022/02/02 10:50:18;;;;;;;23.00;5.28;;;;;;;10.33;100.00;101991.41;5231361;28;20045;-74
2022/02/02 10:53:22;;;;;;;25.00;6.07;;;;;;;10.37;100.00;102000.75;5231234;28;20047;-75
2022/02/02 10:56:04;;;;;;;19.03;4.77;;;;;;;10.29;100.00;101989.09;5228166;28;20037;-75
2022/02/02 11:06:43;;;;;;;21.50;4.70;;;;;;;10.37;100.00;101987.66;5230022;28;20676;-74
2022/02/02 11:09:18;;;;;;;19.92;4.68;;;;;;;10.41;100.00;101999.59;5228887;28;20060;-75
2022/02/02 11:11:52;;;;;;;20.20;4.70;;;;;;;10.43;100.00;101991.66;5229110;28;20060;-75
2022/02/02 11:14:38;;;;;;;25.05;5.20;;;;;;;10.52;100.00;101988.41;5230270;28;20034;-75
2022/02/02 11:17:16;;;;;;;21.08;4.60;;;;;;;10.47;100.00;101977.41;5229561;28;20079;-75
2022/02/02 11:19:51;;;;;;;21.15;4.78;;;;;;;10.47;100.00;101982.66;5228411;28;20402;-75
2022/02/02 11:22:30;;;;;;;17.70;4.90;;;;;;;10.48;100.00;101981.69;5231843;28;20033;-74
2022/02/02 11:25:04;;;;;;;20.42;5.25;;;;;;;10.50;100.00;101982.47;5230421;28;20057;-75
2022/02/02 11:27:38;;;;;;;18.77;5.20;;;;;;;10.53;100.00;101984.88;5229325;28;20026;-75
2022/02/02 11:30:29;;;;;;;19.95;4.57;;;;;;;10.81;100.00;101991.72;5230972;28;20208;-74
2022/02/02 11:33:14;;;;;;;24.33;5.18;;;;;;;10.75;100.00;101997.38;5228515;28;20055;-75
2022/02/02 11:35:46;;;;;;;26.27;5.68;;;;;;;10.70;100.00;101996.84;5226676;28;20037;-75
2022/02/02 11:38:25;;;;;;;21.30;4.35;;;;;;;10.75;100.00;101994.75;5228143;28;20114;-75
2022/02/02 11:41:15;;;;;;;14.85;4.05;;;;;;;10.78;100.00;101997.16;5230885;28;20656;-75
2022/02/02 11:46:55;;;;;;;23.38;5.25;;;;;;;10.81;100.00;101981.22;5233405;28;20039;-74
2022/02/02 11:49:59;;;;;;;17.88;4.07;;;;;;;10.77;100.00;101974.53;5232896;28;20033;-75
2022/02/02 11:52:45;;;;;;;18.92;5.07;;;;;;;10.82;100.00;101993.38;5230906;28;20052;-74
2022/02/02 11:55:16;;;;;;;17.55;4.55;;;;;;;10.79;100.00;101988.34;5233347;28;20072;-75
2022/02/02 11:57:51;;;;;;;23.07;4.87;;;;;;;10.88;100.00;101989.53;5233255;28;20046;-74
2022/02/02 12:08:57;;;;;;;17.42;4.60;;;;;;;11.02;100.00;101985.94;5232722;28;20117;-75
2022/02/02 12:49:35;;;;;;;19.00;3.80;;;;;;;11.13;100.00;101938.84;5230567;28;20144;-75
2022/02/02 12:57:38;;;;;;;16.60;4.57;;;;;;;11.55;100.00;101923.63;5215380;28;20046;-74
2022/02/02 13:00:20;;;;;;;21.75;5.28;;;;;;;11.63;100.00;101922.16;5223524;28;20028;-75
2022/02/02 13:02:52;;;;;;;15.00;4.18;;;;;;;11.64;100.00;101930.88;5211899;28;20085;-76
2022/02/02 13:05:24;;;;;;;21.25;4.28;;;;;;;11.64;100.00;101933.50;5225171;28;20048;-74
2022/02/02 13:07:57;;;;;;;17.90;4.20;;;;;;;11.76;100.00;101934.41;5224944;28;20228;-74
2022/02/02 13:10:36;;;;;;;15.13;4.13;;;;;;;11.87;100.00;101945.00;5226976;28;20108;-74
2022/02/02 13:13:21;;;;;;;14.38;3.72;;;;;;;11.75;100.00;101940.59;5226218;28;20120;-74
2022/02/02 13:16:19;;;;;;;15.63;3.83;;;;;;;11.79;100.00;101949.94;5226015;28;20034;-74
2022/02/02 13:18:54;;;;;;;16.95;4.20;;;;;;;11.54;100.00;101951.66;5225015;28;20088;-74
2022/02/02 13:21:30;;;;;;;21.73;4.53;;;;;;;11.50;100.00;101960.72;5226166;28;20052;-74
2022/02/02 13:24:17;;;;;;;20.33;4.38;;;;;;;11.48;100.00;101954.75;5228717;28;20126;-75
2022/02/02 13:27:03;;;;;;;15.82;4.00;;;;;;;11.58;100.00;101971.50;5229618;28;20120;-75
2022/02/02 13:29:48;;;;;;;22.58;5.00;;;;;;;11.39;100.00;101961.47;5227563;28;20048;-73
2022/02/02 13:46:21;;;;;;;16.48;4.88;;;;;;;11.55;100.00;101986.63;5221608;28;20061;-74
2022/02/02 13:52:06;;;;;;;17.17;5.82;;;;;;;11.44;100.00;101974.28;5222292;28;20129;-75
2022/02/02 14:00:31;;;;;;;17.50;4.25;;;;;;;11.38;100.00;101991.28;5219063;28;20061;-74
2022/02/02 14:06:14;;;;;;;15.88;5.07;;;;;;;11.29;100.00;101985.81;5222663;28;20124;-73
2022/02/02 14:25:40;;;;;;;17.40;5.03;;;;;;;11.14;100.00;101995.63;5222947;28;20091;-74
2022/02/02 14:26:07;;;;;;;22.85;5.40;;;;;;;11.20;100.00;102016.16;5225354;28;20030;-73
2022/02/02 14:31:35;;;;;;;14.90;4.68;;;;;;;11.14;100.00;102020.06;5223138;28;20456;-72
2022/02/02 14:34:07;;;;;;;13.07;4.03;;;;;;;11.08;100.00;102025.72;5221952;28;20041;-73
2022/02/02 14:36:40;;;;;;;15.40;5.07;;;;;;;11.05;100.00;102019.84;5221382;28;20155;-74
2022/02/02 14:39:19;;;;;;;16.70;4.63;;;;;;;11.12;100.00;102024.56;5223345;28;20438;-75
2022/02/02 14:41:56;;;;;;;19.02;4.40;;;;;;;11.07;100.00;102020.59;5221895;28;20041;-74
2022/02/02 14:44:33;;;;;;;14.38;4.38;;;;;;;11.05;100.00;102027.72;5226886;28;20561;-73
2022/02/02 14:47:15;;;;;;;14.68;3.75;;;;;;;11.05;100.00;102030.31;5222093;28;20034;-73
2022/02/02 14:49:57;;;;;;;16.85;3.90;;;;;;;11.03;100.00;102032.22;5215995;28;20072;-73
2022/02/02 14:52:53;;;;;;;14.02;3.58;;;;;;;11.01;100.00;102036.72;5224172;28;20485;-73
2022/02/02 15:26:56;;;;;;;12.13;3.75;;;;;;;11.01;100.00;102041.97;5219166;28;20061;-74
2022/02/02 15:28:41;;;;;;;17.98;4.22;;;;;;;11.00;100.00;102042.91;5222884;28;20037;-73
2022/02/02 15:31:14;;;;;;;12.88;4.18;;;;;;;10.96;100.00;102053.63;5222661;28;20083;-73
2022/02/02 15:33:49;;;;;;;9.82;3.90;;;;;;;10.87;100.00;102041.13;5221788;28;20033;-73
2022/02/02 15:39:07;;;;;;;9.95;4.15;;;;;;;10.79;100.00;102045.19;5219677;28;20113;-73
2022/02/02 15:56:30;;;;;;;8.65;3.70;;;;;;;10.48;100.00;102041.97;5220415;28;20058;-73
2022/02/02 15:58:32;;;;;;;11.07;3.95;;;;;;;10.40;100.00;102044.25;5220298;28;20056;-73
2022/02/02 16:01:57;;;;;;;7.53;4.07;;;;;;;10.42;100.00;102042.38;5221841;28;20022;-73
2022/02/02 16:04:21;;;;;;;8.35;4.30;;;;;;;10.36;100.00;102027.88;5220013;28;20636;-73
2022/02/02 16:06:54;;;;;;;9.93;4.07;;;;;;;10.31;100.00;102032.59;5220079;28;20033;-74
2022/02/02 16:09:30;;;;;;;6.85;4.18;;;;;;;10.25;100.00;102019.88;5221011;28;20022;-73
2022/02/02 16:12:41;;;;;;;8.50;4.00;;;;;;;10.27;100.00;102027.66;5204759;28;20040;-73
2022/02/02 16:15:24;;;;;;;10.10;4.00;;;;;;;10.25;100.00;102017.25;5216718;28;20421;-72
2022/02/02 16:18:32;;;;;;;9.82;3.20;;;;;;;10.20;100.00;102019.31;5222054;28;20519;-73
2022/02/02 16:37:31;;;;;;;9.40;4.68;;;;;;;9.96;100.00;102022.56;5221460;28;20044;-73
2022/02/02 16:40:05;;;;;;;13.60;4.57;;;;;;;9.90;100.00;102022.94;5208200;28;20075;-73
2022/02/02 16:45:30;;;;;;;10.65;4.20;;;;;;;9.88;100.00;102023.97;5223102;28;20091;-73
2022/02/02 16:48:03;;;;;;;10.75;4.30;;;;;;;9.81;100.00;102010.44;5225637;28;20104;-73
2022/02/02 16:50:37;;;;;;;10.00;3.87;;;;;;;9.84;100.00;102015.47;5221285;28;20406;-73
2022/02/02 16:53:22;;;;;;;12.07;4.03;;;;;;;9.79;100.00;102025.41;5225637;28;20449;-73
2022/02/02 17:24:28;;;;;;;10.95;4.30;;;;;;;9.57;100.00;102023.25;5226104;28;20037;-75
2022/02/02 17:32:46;;;;;;;8.75;3.85;;;;;;;9.57;100.00;102032.91;5224203;28;20498;-75
2022/02/02 17:38:23;;;;;;;8.65;4.45;;;;;;;9.57;100.00;102033.72;5214781;28;20121;-76
2022/02/02 18:00:49;;;;;;;7.68;4.90;;;;;;;9.57;100.00;102045.97;5223234;28;20079;-76
2022/02/02 18:19:29;;;;;;;7.10;5.88;;;;;;;9.66;100.00;102055.88;5223962;28;20026;-75
2022/02/02 18:22:01;;;;;;;9.57;5.75;;;;;;;9.70;100.00;102060.00;5219572;28;20038;-75
2022/02/02 18:24:43;;;;;;;8.82;5.93;;;;;;;9.60;100.00;102037.94;5224282;28;20033;-75
2022/02/02 18:27:21;;;;;;;9.70;6.40;;;;;;;9.63;100.00;102053.47;5220776;28;20510;-75
2022/02/02 18:30:16;;;;;;;9.02;6.50;;;;;;;9.64;100.00;102045.50;5222073;28;20263;-74
2022/02/02 18:33:04;;;;;;;9.57;6.75;;;;;;;9.63;100.00;102043.00;5218040;28;20048;-74
2022/02/02 18:35:41;;;;;;;11.75;7.88;;;;;;;9.60;100.00;102035.31;5221665;28;20461;-75
2022/02/02 18:54:20;;;;;;;21.58;14.10;;;;;;;9.69;100.00;102039.97;5220154;28;20045;-73
2022/02/02 19:02:18;;;;;;;23.58;17.83;;;;;;;9.66;100.00;102042.78;5225594;28;20628;-74
2022/02/02 19:08:08;;;;;;;25.50;18.80;;;;;;;9.69;100.00;102032.97;5230393;28;20030;-74
2022/02/02 19:52:25;;;;;;;34.13;25.95;;;;;;;9.76;100.00;102049.13;5229517;28;20029;-75
2022/02/02 19:56:16;;;;;;;31.23;25.20;;;;;;;9.77;100.00;102032.50;5230453;28;20061;-75
2022/02/02 20:04:34;;;;;;;31.52;24.65;;;;;;;9.77;100.00;102056.03;5233529;28;20037;-75
2022/02/02 20:07:12;;;;;;;27.95;23.05;;;;;;;9.78;100.00;102051.69;5233038;28;20029;-75
2022/02/02 20:09:54;;;;;;;32.70;23.70;;;;;;;9.73;100.00;102050.16;5229677;28;20017;-75
2022/02/02 20:12:36;;;;;;;32.70;23.85;;;;;;;9.68;100.00;102043.53;5235631;28;20041;-75
2022/02/02 20:15:14;;;;;;;29.00;24.35;;;;;;;9.78;100.00;102051.69;5232955;28;20607;-75
2022/02/02 20:17:46;;;;;;;33.88;25.02;;;;;;;9.72;100.00;102037.19;5232276;28;20159;-75
2022/02/02 20:20:21;;;;;;;31.10;25.10;;;;;;;9.74;100.00;102035.31;5235549;28;20045;-74
2022/02/02 20:22:53;;;;;;;30.17;24.20;;;;;;;9.77;100.00;102044.75;5233148;28;20038;-74
2022/02/02 20:25:24;;;;;;;31.05;25.38;;;;;;;9.75;100.00;102047.47;5231641;28;20028;-74
2022/02/02 20:28:03;;;;;;;34.53;25.42;;;;;;;9.77;100.00;102044.75;5234370;28;20061;-75
2022/02/02 20:30:36;;;;;;;33.13;25.85;;;;;;;9.74;100.00;102046.63;5233272;28;20475;-75
2022/02/02 20:33:07;;;;;;;;;;;;;;;10.21;100.00;102044.56;5228899;28;20563;-75
2022/02/02 20:35:39;;;;;;;35.30;26.13;;;;;;;9.81;100.00;102051.47;5231837;28;20015;-75
2022/02/02 20:38:11;;;;;;;35.40;28.70;;;;;;;9.78;100.00;102054.28;5231882;28;20615;-75
2022/02/02 20:40:43;;;;;;;39.97;29.63;;;;;;;9.74;100.00;102048.41;5226277;28;20032;-74
2022/02/02 20:43:26;;;;;;;37.92;28.83;;;;;;;9.73;100.00;102049.31;5231657;28;20041;-75
2022/02/02 21:10:25;;;;;;;40.25;30.83;;;;;;;9.67;100.00;102049.72;5231778;28;20036;-74
2022/02/02 21:15:48;;;;;;;41.15;30.67;;;;;;;9.67;100.00;102039.25;5231609;28;20033;-75
2022/02/02 21:18:29;;;;;;;36.78;28.77;;;;;;;9.70;100.00;102046.91;5231333;28;20025;-75
2022/02/02 21:21:14;;;;;;;39.75;31.13;;;;;;;9.66;100.00;102042.78;5231201;28;20025;-75
2022/02/02 21:24:18;;;;;;;41.40;31.95;;;;;;;9.62;100.00;102042.16;5229924;28;20116;-75
2022/02/02 21:29:17;;;;;;;38.38;30.42;;;;;;;9.65;100.00;102043.72;5228232;28;20511;-75
2022/02/02 21:31:49;;;;;;;41.50;31.60;;;;;;;9.60;100.00;102038.78;5231767;28;20041;-74
2022/02/02 21:34:22;;;;;;;39.42;30.83;;;;;;;9.68;100.00;102059.25;5231275;28;20021;-75
2022/02/02 21:37:01;;;;;;;42.70;32.03;;;;;;;9.68;100.00;102064.47;5233153;28;20026;-75
2022/02/02 21:39:36;;;;;;;36.00;29.80;;;;;;;9.67;100.00;102065.41;5230699;28;20478;-74
2022/02/02 21:42:07;;;;;;;38.08;31.42;;;;;;;9.57;100.00;102048.59;5232760;28;20041;-75
2022/02/02 21:44:41;;;;;;;41.10;31.95;;;;;;;9.67;100.00;102068.03;5231660;28;20025;-74
2022/02/02 21:47:12;;;;;;;40.78;32.17;;;;;;;9.65;100.00;102065.50;5230706;28;20036;-75
2022/02/02 21:49:45;;;;;;;38.92;31.95;;;;;;;9.70;100.00;102062.63;5231845;28;20025;-75
2022/02/02 21:52:17;;;;;;;42.10;32.72;;;;;;;9.69;100.00;102058.31;5212678;28;20241;-75
2022/02/02 21:54:48;;;;;;;41.45;33.00;;;;;;;9.71;100.00;102053.81;5231618;28;20056;-75
2022/02/02 21:57:20;;;;;;;41.30;33.22;;;;;;;9.72;100.00;102058.13;5232728;28;20494;-75
2022/02/02 21:59:51;;;;;;;42.95;34.10;;;;;;;9.68;100.00;102049.63;5232659;28;20437;-75
2022/02/02 22:02:22;;;;;;;42.30;34.35;;;;;;;9.73;100.00;102049.31;5212588;28;20025;-75
2022/02/02 22:04:54;;;;;;;40.05;33.35;;;;;;;9.69;100.00;102046.06;5232851;28;20032;-75
2022/02/02 22:07:26;;;;;;;42.50;35.13;;;;;;;9.67;100.00;102042.72;5231676;28;20030;-75
2022/02/02 22:10:00;;;;;;;44.40;35.67;;;;;;;9.65;100.00;102046.34;5231570;28;20030;-74
2022/02/02 22:12:34;;;;;;;42.70;33.80;;;;;;;9.67;100.00;102042.72;5232240;28;20486;-74
2022/02/02 22:15:10;;;;;;;42.70;35.53;;;;;;;9.65;100.00;102039.31;5212161;28;20343;-75
2022/02/02 22:17:41;;;;;;;43.03;34.38;;;;;;;9.68;100.00;102039.16;5230749;28;20036;-75
2022/02/02 22:20:15;;;;;;;43.50;37.10;;;;;;;9.67;100.00;102039.25;5231140;28;20108;-74